sensor_id;sensor_type;location;lat;lon;timestamp;P1;durP1;ratioP1;P2;durP2;ratioP2
66575;SDS011;53428;47.686;16.584;2023-04-24T00:04:23;5.80;;;3.80;;
66575;SDS011;53428;47.686;16.584;2023-04-24T00:09:24;6.90;;;4.47;;
66575;SDS011;53428;47.686;16.584;2023-04-24T00:14:24;7.22;;;4.15;;
66575;SDS011;53428;47.686;16.584;2023-04-24T00:19:23;6.20;;;3.90;;
66575;SDS011;53428;47.686;16.584;2023-04-24T00:24:22;7.75;;;4.80;;
66575;SDS011;53428;47.686;16.584;2023-04-24T00:29:22;7.05;;;4.60;;
66575;SDS011;53428;47.686;16.584;2023-04-24T00:34:21;8.18;;;4.25;;
66575;SDS011;53428;47.686;16.584;2023-04-24T00:39:21;6.35;;;5.03;;
66575;SDS011;53428;47.686;16.584;2023-04-24T00:44:21;7.22;;;5.03;;
66575;SDS011;53428;47.686;16.584;2023-04-24T00:49:21;7.85;;;5.10;;
66575;SDS011;53428;47.686;16.584;2023-04-24T00:54:21;8.88;;;5.82;;
66575;SDS011;53428;47.686;16.584;2023-04-24T00:59:20;10.20;;;6.18;;
66575;SDS011;53428;47.686;16.584;2023-04-24T01:04:19;8.98;;;5.90;;
66575;SDS011;53428;47.686;16.584;2023-04-24T01:09:19;8.38;;;5.75;;
66575;SDS011;53428;47.686;16.584;2023-04-24T01:14:22;12.80;;;6.13;;
66575;SDS011;53428;47.686;16.584;2023-04-24T01:19:21;8.07;;;6.13;;
66575;SDS011;53428;47.686;16.584;2023-04-24T01:24:21;11.90;;;6.40;;
66575;SDS011;53428;47.686;16.584;2023-04-24T01:29:20;10.23;;;7.05;;
66575;SDS011;53428;47.686;16.584;2023-04-24T01:34:20;10.10;;;6.13;;
66575;SDS011;53428;47.686;16.584;2023-04-24T01:39:19;6.78;;;5.30;;
66575;SDS011;53428;47.686;16.584;2023-04-24T01:44:19;10.93;;;6.15;;
66575;SDS011;53428;47.686;16.584;2023-04-24T01:49:18;7.30;;;5.72;;
66575;SDS011;53428;47.686;16.584;2023-04-24T01:54:18;8.73;;;4.88;;
66575;SDS011;53428;47.686;16.584;2023-04-24T01:59:18;8.82;;;5.32;;
66575;SDS011;53428;47.686;16.584;2023-04-24T02:04:19;6.80;;;5.32;;
66575;SDS011;53428;47.686;16.584;2023-04-24T02:09:19;6.78;;;5.32;;
66575;SDS011;53428;47.686;16.584;2023-04-24T02:14:18;7.80;;;5.13;;
66575;SDS011;53428;47.686;16.584;2023-04-24T02:19:17;11.07;;;5.45;;
66575;SDS011;53428;47.686;16.584;2023-04-24T02:24:17;9.38;;;6.00;;
66575;SDS011;53428;47.686;16.584;2023-04-24T02:29:16;13.32;;;5.65;;
66575;SDS011;53428;47.686;16.584;2023-04-24T02:34:16;18.77;;;5.93;;
66575;SDS011;53428;47.686;16.584;2023-04-24T02:39:15;9.55;;;5.82;;
66575;SDS011;53428;47.686;16.584;2023-04-24T02:44:17;13.70;;;7.65;;
66575;SDS011;53428;47.686;16.584;2023-04-24T02:49:16;11.77;;;6.95;;
66575;SDS011;53428;47.686;16.584;2023-04-24T02:54:16;13.77;;;8.85;;
66575;SDS011;53428;47.686;16.584;2023-04-24T02:59:15;13.35;;;8.70;;
66575;SDS011;53428;47.686;16.584;2023-04-24T03:04:14;12.38;;;8.32;;
66575;SDS011;53428;47.686;16.584;2023-04-24T03:09:14;12.88;;;7.78;;
66575;SDS011;53428;47.686;16.584;2023-04-24T03:14:14;13.77;;;8.07;;
66575;SDS011;53428;47.686;16.584;2023-04-24T03:19:13;13.18;;;8.68;;
66575;SDS011;53428;47.686;16.584;2023-04-24T03:24:12;15.82;;;9.30;;
66575;SDS011;53428;47.686;16.584;2023-04-24T03:29:12;13.85;;;8.07;;
66575;SDS011;53428;47.686;16.584;2023-04-24T03:34:11;11.88;;;8.65;;
66575;SDS011;53428;47.686;16.584;2023-04-24T03:39:10;14.65;;;9.68;;
66575;SDS011;53428;47.686;16.584;2023-04-24T03:44:10;13.18;;;7.78;;
66575;SDS011;53428;47.686;16.584;2023-04-24T03:49:09;11.23;;;7.35;;
66575;SDS011;53428;47.686;16.584;2023-04-24T03:54:08;18.45;;;10.98;;
66575;SDS011;53428;47.686;16.584;2023-04-24T03:59:08;17.13;;;9.48;;
66575;SDS011;53428;47.686;16.584;2023-04-24T04:04:07;11.25;;;8.25;;
66575;SDS011;53428;47.686;16.584;2023-04-24T04:09:06;17.17;;;9.40;;
66575;SDS011;53428;47.686;16.584;2023-04-24T04:14:07;15.80;;;8.25;;
66575;SDS011;53428;47.686;16.584;2023-04-24T04:19:06;13.10;;;8.98;;
66575;SDS011;53428;47.686;16.584;2023-04-24T04:24:06;14.50;;;8.52;;
66575;SDS011;53428;47.686;16.584;2023-04-24T04:29:06;15.73;;;9.05;;
66575;SDS011;53428;47.686;16.584;2023-04-24T04:34:05;12.68;;;9.10;;
66575;SDS011;53428;47.686;16.584;2023-04-24T04:39:06;14.95;;;8.52;;
66575;SDS011;53428;47.686;16.584;2023-04-24T04:44:06;15.00;;;8.50;;
66575;SDS011;53428;47.686;16.584;2023-04-24T04:49:07;14.77;;;8.00;;
66575;SDS011;53428;47.686;16.584;2023-04-24T04:54:07;16.88;;;7.82;;
66575;SDS011;53428;47.686;16.584;2023-04-24T04:59:06;12.13;;;7.22;;
66575;SDS011;53428;47.686;16.584;2023-04-24T05:04:06;9.50;;;5.80;;
66575;SDS011;53428;47.686;16.584;2023-04-24T05:09:05;22.63;;;10.93;;
66575;SDS011;53428;47.686;16.584;2023-04-24T05:14:06;14.55;;;9.25;;
66575;SDS011;53428;47.686;16.584;2023-04-24T05:19:05;12.65;;;8.85;;
66575;SDS011;53428;47.686;16.584;2023-04-24T05:24:04;10.20;;;6.53;;
66575;SDS011;53428;47.686;16.584;2023-04-24T05:29:04;11.40;;;6.28;;
66575;SDS011;53428;47.686;16.584;2023-04-24T05:34:03;8.57;;;5.65;;
66575;SDS011;53428;47.686;16.584;2023-04-24T05:39:03;14.73;;;7.82;;
66575;SDS011;53428;47.686;16.584;2023-04-24T05:44:03;18.65;;;8.48;;
66575;SDS011;53428;47.686;16.584;2023-04-24T05:49:03;13.18;;;6.53;;
66575;SDS011;53428;47.686;16.584;2023-04-24T05:54:02;9.52;;;5.43;;
66575;SDS011;53428;47.686;16.584;2023-04-24T05:59:02;6.68;;;5.50;;
66575;SDS011;53428;47.686;16.584;2023-04-24T06:04:03;8.40;;;5.65;;
66575;SDS011;53428;47.686;16.584;2023-04-24T06:09:02;10.55;;;5.70;;
66575;SDS011;53428;47.686;16.584;2023-04-24T06:14:02;6.97;;;4.25;;
66575;SDS011;53428;47.686;16.584;2023-04-24T06:19:01;8.65;;;3.92;;
66575;SDS011;53428;47.686;16.584;2023-04-24T06:24:00;3.45;;;2.70;;
66575;SDS011;53428;47.686;16.584;2023-04-24T06:29:00;5.68;;;2.60;;
66575;SDS011;53428;47.686;16.584;2023-04-24T06:34:00;5.72;;;3.22;;
66575;SDS011;53428;47.686;16.584;2023-04-24T06:39:00;3.13;;;2.65;;
66575;SDS011;53428;47.686;16.584;2023-04-24T06:44:00;6.70;;;4.35;;
66575;SDS011;53428;47.686;16.584;2023-04-24T06:48:59;4.95;;;4.03;;
66575;SDS011;53428;47.686;16.584;2023-04-24T06:53:59;9.05;;;4.82;;
66575;SDS011;53428;47.686;16.584;2023-04-24T06:58:58;8.75;;;3.78;;
66575;SDS011;53428;47.686;16.584;2023-04-24T07:03:58;5.20;;;3.72;;
66575;SDS011;53428;47.686;16.584;2023-04-24T07:08:58;4.70;;;3.63;;
66575;SDS011;53428;47.686;16.584;2023-04-24T07:13:59;4.78;;;3.83;;
66575;SDS011;53428;47.686;16.584;2023-04-24T07:18:58;9.25;;;3.80;;
66575;SDS011;53428;47.686;16.584;2023-04-24T07:23:59;7.88;;;4.45;;
66575;SDS011;53428;47.686;16.584;2023-04-24T07:29:01;6.28;;;4.75;;
66575;SDS011;53428;47.686;16.584;2023-04-24T07:34:00;20.48;;;4.97;;
66575;SDS011;53428;47.686;16.584;2023-04-24T07:39:00;7.13;;;5.43;;
66575;SDS011;53428;47.686;16.584;2023-04-24T07:43:59;12.35;;;6.07;;
66575;SDS011;53428;47.686;16.584;2023-04-24T07:48:58;6.70;;;5.57;;
66575;SDS011;53428;47.686;16.584;2023-04-24T07:53:59;10.40;;;5.00;;
66575;SDS011;53428;47.686;16.584;2023-04-24T07:58:59;9.38;;;4.93;;
66575;SDS011;53428;47.686;16.584;2023-04-24T08:04:00;6.45;;;4.85;;
66575;SDS011;53428;47.686;16.584;2023-04-24T08:09:00;11.35;;;5.50;;
66575;SDS011;53428;47.686;16.584;2023-04-24T08:13:59;13.27;;;8.48;;
66575;SDS011;53428;47.686;16.584;2023-04-24T08:18:58;15.18;;;6.25;;
66575;SDS011;53428;47.686;16.584;2023-04-24T08:23:58;8.05;;;4.57;;
66575;SDS011;53428;47.686;16.584;2023-04-24T08:28:57;7.75;;;5.13;;
66575;SDS011;53428;47.686;16.584;2023-04-24T08:33:57;7.82;;;4.40;;
66575;SDS011;53428;47.686;16.584;2023-04-24T08:38:56;10.70;;;6.20;;
66575;SDS011;53428;47.686;16.584;2023-04-24T08:43:56;11.65;;;4.80;;
66575;SDS011;53428;47.686;16.584;2023-04-24T08:48:56;19.90;;;5.55;;
66575;SDS011;53428;47.686;16.584;2023-04-24T08:53:57;23.63;;;5.90;;
66575;SDS011;53428;47.686;16.584;2023-04-24T08:58:56;24.77;;;7.47;;
66575;SDS011;53428;47.686;16.584;2023-04-24T09:03:56;7.55;;;6.25;;
66575;SDS011;53428;47.686;16.584;2023-04-24T09:08:56;7.50;;;5.00;;
66575;SDS011;53428;47.686;16.584;2023-04-24T09:13:59;9.63;;;5.68;;
66575;SDS011;53428;47.686;16.584;2023-04-24T09:18:59;11.00;;;7.20;;
66575;SDS011;53428;47.686;16.584;2023-04-24T09:23:59;37.85;;;8.15;;
66575;SDS011;53428;47.686;16.584;2023-04-24T09:29:00;8.35;;;5.90;;
66575;SDS011;53428;47.686;16.584;2023-04-24T09:34:00;13.50;;;6.30;;
66575;SDS011;53428;47.686;16.584;2023-04-24T09:39:16;10.82;;;5.20;;
66575;SDS011;53428;47.686;16.584;2023-04-24T09:44:29;9.20;;;5.45;;
66575;SDS011;53428;47.686;16.584;2023-04-24T09:49:29;6.63;;;3.55;;
66575;SDS011;53428;47.686;16.584;2023-04-24T09:54:31;7.32;;;3.97;;
66575;SDS011;53428;47.686;16.584;2023-04-24T09:59:30;6.80;;;3.70;;
66575;SDS011;53428;47.686;16.584;2023-04-24T10:04:29;6.65;;;3.53;;
66575;SDS011;53428;47.686;16.584;2023-04-24T10:09:28;7.10;;;2.97;;
66575;SDS011;53428;47.686;16.584;2023-04-24T10:14:28;2.88;;;1.85;;
66575;SDS011;53428;47.686;16.584;2023-04-24T10:19:29;3.78;;;1.50;;
66575;SDS011;53428;47.686;16.584;2023-04-24T10:24:29;1.95;;;1.75;;
66575;SDS011;53428;47.686;16.584;2023-04-24T10:29:29;22.13;;;10.73;;
66575;SDS011;53428;47.686;16.584;2023-04-24T10:34:30;2.10;;;1.80;;
66575;SDS011;53428;47.686;16.584;2023-04-24T10:39:29;5.20;;;2.53;;
66575;SDS011;53428;47.686;16.584;2023-04-24T10:44:35;5.30;;;2.50;;
66575;SDS011;53428;47.686;16.584;2023-04-24T10:49:35;3.28;;;1.50;;
66575;SDS011;53428;47.686;16.584;2023-04-24T10:54:44;0.95;;;0.88;;
66575;SDS011;53428;47.686;16.584;2023-04-24T10:59:45;5.78;;;0.73;;
66575;SDS011;53428;47.686;16.584;2023-04-24T11:04:45;0.60;;;0.55;;
66575;SDS011;53428;47.686;16.584;2023-04-24T11:09:44;1.27;;;0.95;;
66575;SDS011;53428;47.686;16.584;2023-04-24T11:20:06;0.20;;;0.20;;
66575;SDS011;53428;47.686;16.584;2023-04-24T11:25:08;1.50;;;0.73;;
66575;SDS011;53428;47.686;16.584;2023-04-24T11:30:10;0.73;;;0.43;;
66575;SDS011;53428;47.686;16.584;2023-04-24T11:35:19;1.13;;;0.50;;
66575;SDS011;53428;47.686;16.584;2023-04-24T11:40:23;1.38;;;0.40;;
66575;SDS011;53428;47.686;16.584;2023-04-24T11:45:24;0.38;;;0.38;;
66575;SDS011;53428;47.686;16.584;2023-04-24T11:50:28;0.30;;;0.20;;
66575;SDS011;53428;47.686;16.584;2023-04-24T11:55:28;0.45;;;0.40;;
66575;SDS011;53428;47.686;16.584;2023-04-24T12:00:29;0.77;;;0.30;;
66575;SDS011;53428;47.686;16.584;2023-04-24T12:05:29;0.85;;;0.55;;
66575;SDS011;53428;47.686;16.584;2023-04-24T12:10:33;0.20;;;0.20;;
66575;SDS011;53428;47.686;16.584;2023-04-24T12:15:33;0.60;;;0.50;;
66575;SDS011;53428;47.686;16.584;2023-04-24T12:20:33;0.43;;;0.43;;
66575;SDS011;53428;47.686;16.584;2023-04-24T12:25:32;0.25;;;0.25;;
66575;SDS011;53428;47.686;16.584;2023-04-24T12:30:32;1.83;;;0.43;;
66575;SDS011;53428;47.686;16.584;2023-04-24T12:35:53;5.13;;;1.80;;
66575;SDS011;53428;47.686;16.584;2023-04-24T12:46:03;0.77;;;0.65;;
66575;SDS011;53428;47.686;16.584;2023-04-24T12:51:03;0.40;;;0.40;;
66575;SDS011;53428;47.686;16.584;2023-04-24T12:56:03;0.38;;;0.38;;
66575;SDS011;53428;47.686;16.584;2023-04-24T13:01:02;0.90;;;0.57;;
66575;SDS011;53428;47.686;16.584;2023-04-24T13:06:01;0.60;;;0.60;;
66575;SDS011;53428;47.686;16.584;2023-04-24T13:11:00;0.60;;;0.60;;
66575;SDS011;53428;47.686;16.584;2023-04-24T13:16:00;1.98;;;0.77;;
66575;SDS011;53428;47.686;16.584;2023-04-24T13:20:59;2.03;;;1.15;;
66575;SDS011;53428;47.686;16.584;2023-04-24T13:25:58;2.17;;;0.80;;
66575;SDS011;53428;47.686;16.584;2023-04-24T13:30:58;0.50;;;0.47;;
66575;SDS011;53428;47.686;16.584;2023-04-24T13:35:58;0.38;;;0.38;;
66575;SDS011;53428;47.686;16.584;2023-04-24T13:40:58;2.80;;;0.60;;
66575;SDS011;53428;47.686;16.584;2023-04-24T13:45:58;1.35;;;0.65;;
66575;SDS011;53428;47.686;16.584;2023-04-24T13:50:58;0.60;;;0.60;;
66575;SDS011;53428;47.686;16.584;2023-04-24T13:55:57;0.75;;;0.60;;
66575;SDS011;53428;47.686;16.584;2023-04-24T14:00:56;1.90;;;0.70;;
66575;SDS011;53428;47.686;16.584;2023-04-24T14:05:55;2.47;;;0.80;;
66575;SDS011;53428;47.686;16.584;2023-04-24T14:10:54;0.77;;;0.60;;
66575;SDS011;53428;47.686;16.584;2023-04-24T14:15:54;0.70;;;0.70;;
66575;SDS011;53428;47.686;16.584;2023-04-24T14:20:53;3.58;;;1.50;;
66575;SDS011;53428;47.686;16.584;2023-04-24T14:25:52;3.63;;;1.55;;
66575;SDS011;53428;47.686;16.584;2023-04-24T14:30:52;3.95;;;1.20;;
66575;SDS011;53428;47.686;16.584;2023-04-24T14:35:51;1.45;;;1.13;;
66575;SDS011;53428;47.686;16.584;2023-04-24T14:40:51;1.58;;;1.33;;
66575;SDS011;53428;47.686;16.584;2023-04-24T14:45:50;1.58;;;1.25;;
66575;SDS011;53428;47.686;16.584;2023-04-24T14:50:49;1.20;;;1.10;;
66575;SDS011;53428;47.686;16.584;2023-04-24T14:55:48;1.45;;;0.88;;
66575;SDS011;53428;47.686;16.584;2023-04-24T15:00:48;3.50;;;1.23;;
66575;SDS011;53428;47.686;16.584;2023-04-24T15:05:50;1.38;;;1.13;;
66575;SDS011;53428;47.686;16.584;2023-04-24T15:10:50;1.73;;;0.70;;
66575;SDS011;53428;47.686;16.584;2023-04-24T15:15:49;2.03;;;0.70;;
66575;SDS011;53428;47.686;16.584;2023-04-24T15:20:48;0.63;;;0.57;;
66575;SDS011;53428;47.686;16.584;2023-04-24T15:25:49;2.10;;;0.90;;
66575;SDS011;53428;47.686;16.584;2023-04-24T15:31:10;1.60;;;1.20;;
66575;SDS011;53428;47.686;16.584;2023-04-24T15:36:09;2.55;;;0.82;;
66575;SDS011;53428;47.686;16.584;2023-04-24T15:41:09;4.07;;;3.22;;
66575;SDS011;53428;47.686;16.584;2023-04-24T15:46:09;1.85;;;1.65;;
66575;SDS011;53428;47.686;16.584;2023-04-24T15:51:08;1.60;;;1.50;;
66575;SDS011;53428;47.686;16.584;2023-04-24T15:56:08;6.63;;;1.20;;
66575;SDS011;53428;47.686;16.584;2023-04-24T16:01:07;1.42;;;1.17;;
66575;SDS011;53428;47.686;16.584;2023-04-24T16:06:07;1.25;;;1.15;;
66575;SDS011;53428;47.686;16.584;2023-04-24T16:11:06;3.55;;;1.42;;
66575;SDS011;53428;47.686;16.584;2023-04-24T16:16:06;1.23;;;1.13;;
66575;SDS011;53428;47.686;16.584;2023-04-24T16:21:05;2.97;;;1.35;;
66575;SDS011;53428;47.686;16.584;2023-04-24T16:26:07;1.95;;;0.95;;
66575;SDS011;53428;47.686;16.584;2023-04-24T16:31:06;1.10;;;0.80;;
66575;SDS011;53428;47.686;16.584;2023-04-24T16:36:05;2.95;;;1.17;;
66575;SDS011;53428;47.686;16.584;2023-04-24T16:41:06;1.25;;;0.57;;
66575;SDS011;53428;47.686;16.584;2023-04-24T16:46:05;1.73;;;0.55;;
66575;SDS011;53428;47.686;16.584;2023-04-24T16:51:06;0.60;;;0.60;;
66575;SDS011;53428;47.686;16.584;2023-04-24T16:56:07;0.47;;;0.47;;
66575;SDS011;53428;47.686;16.584;2023-04-24T17:01:11;1.27;;;1.05;;
66575;SDS011;53428;47.686;16.584;2023-04-24T17:06:10;3.28;;;0.70;;
66575;SDS011;53428;47.686;16.584;2023-04-24T17:11:10;0.55;;;0.55;;
66575;SDS011;53428;47.686;16.584;2023-04-24T17:16:10;0.98;;;0.82;;
66575;SDS011;53428;47.686;16.584;2023-04-24T17:21:09;2.40;;;1.38;;
66575;SDS011;53428;47.686;16.584;2023-04-24T17:26:08;1.05;;;0.95;;
66575;SDS011;53428;47.686;16.584;2023-04-24T17:31:10;3.30;;;1.00;;
66575;SDS011;53428;47.686;16.584;2023-04-24T17:36:09;2.50;;;1.10;;
66575;SDS011;53428;47.686;16.584;2023-04-24T17:41:09;1.75;;;1.23;;
66575;SDS011;53428;47.686;16.584;2023-04-24T17:46:09;1.80;;;1.20;;
66575;SDS011;53428;47.686;16.584;2023-04-24T17:51:08;1.92;;;1.30;;
66575;SDS011;53428;47.686;16.584;2023-04-24T17:56:08;1.92;;;1.27;;
66575;SDS011;53428;47.686;16.584;2023-04-24T18:01:08;4.30;;;2.17;;
66575;SDS011;53428;47.686;16.584;2023-04-24T18:06:07;4.97;;;1.63;;
66575;SDS011;53428;47.686;16.584;2023-04-24T18:11:07;1.85;;;1.33;;
66575;SDS011;53428;47.686;16.584;2023-04-24T18:16:07;2.00;;;1.50;;
66575;SDS011;53428;47.686;16.584;2023-04-24T18:21:07;2.03;;;1.40;;
66575;SDS011;53428;47.686;16.584;2023-04-24T18:26:06;1.80;;;1.50;;
66575;SDS011;53428;47.686;16.584;2023-04-24T18:31:06;1.85;;;1.40;;
66575;SDS011;53428;47.686;16.584;2023-04-24T18:36:06;1.42;;;1.30;;
66575;SDS011;53428;47.686;16.584;2023-04-24T18:41:06;3.13;;;1.98;;
66575;SDS011;53428;47.686;16.584;2023-04-24T18:46:07;2.70;;;2.05;;
66575;SDS011;53428;47.686;16.584;2023-04-24T18:51:06;2.25;;;2.05;;
66575;SDS011;53428;47.686;16.584;2023-04-24T18:56:06;5.00;;;2.45;;
66575;SDS011;53428;47.686;16.584;2023-04-24T19:01:06;4.43;;;2.60;;
66575;SDS011;53428;47.686;16.584;2023-04-24T19:06:06;2.30;;;2.10;;
66575;SDS011;53428;47.686;16.584;2023-04-24T19:11:05;1.75;;;1.65;;
66575;SDS011;53428;47.686;16.584;2023-04-24T19:16:05;4.78;;;1.70;;
66575;SDS011;53428;47.686;16.584;2023-04-24T19:21:04;2.55;;;1.83;;
66575;SDS011;53428;47.686;16.584;2023-04-24T19:26:04;1.65;;;1.27;;
66575;SDS011;53428;47.686;16.584;2023-04-24T19:31:04;3.80;;;1.17;;
66575;SDS011;53428;47.686;16.584;2023-04-24T19:36:03;1.42;;;1.15;;
66575;SDS011;53428;47.686;16.584;2023-04-24T19:41:03;1.45;;;1.23;;
66575;SDS011;53428;47.686;16.584;2023-04-24T19:46:04;2.70;;;1.25;;
66575;SDS011;53428;47.686;16.584;2023-04-24T19:51:04;4.10;;;1.30;;
66575;SDS011;53428;47.686;16.584;2023-04-24T19:56:04;1.48;;;1.38;;
66575;SDS011;53428;47.686;16.584;2023-04-24T20:01:03;1.58;;;1.33;;
66575;SDS011;53428;47.686;16.584;2023-04-24T20:06:03;1.48;;;1.38;;
66575;SDS011;53428;47.686;16.584;2023-04-24T20:11:04;3.45;;;1.13;;
66575;SDS011;53428;47.686;16.584;2023-04-24T20:16:04;1.83;;;0.85;;
66575;SDS011;53428;47.686;16.584;2023-04-24T20:21:07;1.70;;;1.20;;
66575;SDS011;53428;47.686;16.584;2023-04-24T20:26:06;1.65;;;1.38;;
66575;SDS011;53428;47.686;16.584;2023-04-24T20:31:07;4.70;;;1.15;;
66575;SDS011;53428;47.686;16.584;2023-04-24T20:36:07;1.73;;;1.40;;
66575;SDS011;53428;47.686;16.584;2023-04-24T20:41:09;1.40;;;1.10;;
66575;SDS011;53428;47.686;16.584;2023-04-24T20:46:09;1.67;;;1.58;;
66575;SDS011;53428;47.686;16.584;2023-04-24T20:51:09;1.42;;;1.30;;
66575;SDS011;53428;47.686;16.584;2023-04-24T20:56:08;1.60;;;1.40;;
66575;SDS011;53428;47.686;16.584;2023-04-24T21:01:09;2.60;;;1.38;;
66575;SDS011;53428;47.686;16.584;2023-04-24T21:06:08;2.70;;;1.67;;
66575;SDS011;53428;47.686;16.584;2023-04-24T21:11:08;2.97;;;1.83;;
66575;SDS011;53428;47.686;16.584;2023-04-24T21:16:07;2.47;;;1.42;;
66575;SDS011;53428;47.686;16.584;2023-04-24T21:21:07;3.17;;;1.70;;
66575;SDS011;53428;47.686;16.584;2023-04-24T21:26:07;2.50;;;1.63;;
66575;SDS011;53428;47.686;16.584;2023-04-24T21:31:06;2.05;;;1.60;;
66575;SDS011;53428;47.686;16.584;2023-04-24T21:36:06;1.52;;;1.30;;
66575;SDS011;53428;47.686;16.584;2023-04-24T21:41:05;1.70;;;1.60;;
66575;SDS011;53428;47.686;16.584;2023-04-24T21:46:04;3.10;;;1.60;;
66575;SDS011;53428;47.686;16.584;2023-04-24T21:51:04;1.83;;;1.27;;
66575;SDS011;53428;47.686;16.584;2023-04-24T21:56:03;1.50;;;1.40;;
66575;SDS011;53428;47.686;16.584;2023-04-24T22:01:03;1.20;;;1.10;;
66575;SDS011;53428;47.686;16.584;2023-04-24T22:06:03;3.40;;;1.20;;
66575;SDS011;53428;47.686;16.584;2023-04-24T22:11:02;3.80;;;1.67;;
66575;SDS011;53428;47.686;16.584;2023-04-24T22:16:02;2.72;;;1.45;;
66575;SDS011;53428;47.686;16.584;2023-04-24T22:21:01;6.20;;;1.20;;
66575;SDS011;53428;47.686;16.584;2023-04-24T22:26:01;3.25;;;1.45;;
66575;SDS011;53428;47.686;16.584;2023-04-24T22:31:00;2.70;;;1.30;;
66575;SDS011;53428;47.686;16.584;2023-04-24T22:36:00;2.15;;;1.40;;
66575;SDS011;53428;47.686;16.584;2023-04-24T22:40:59;2.88;;;0.98;;
66575;SDS011;53428;47.686;16.584;2023-04-24T22:45:58;1.73;;;1.20;;
66575;SDS011;53428;47.686;16.584;2023-04-24T22:50:58;1.15;;;1.05;;
66575;SDS011;53428;47.686;16.584;2023-04-24T22:55:57;5.88;;;1.13;;
66575;SDS011;53428;47.686;16.584;2023-04-24T23:00:56;1.15;;;1.05;;
66575;SDS011;53428;47.686;16.584;2023-04-24T23:05:56;2.05;;;1.00;;
66575;SDS011;53428;47.686;16.584;2023-04-24T23:10:55;2.08;;;1.10;;
66575;SDS011;53428;47.686;16.584;2023-04-24T23:15:55;6.20;;;1.30;;
66575;SDS011;53428;47.686;16.584;2023-04-24T23:20:54;2.50;;;1.45;;
66575;SDS011;53428;47.686;16.584;2023-04-24T23:25:54;1.88;;;1.30;;
66575;SDS011;53428;47.686;16.584;2023-04-24T23:30:53;2.65;;;1.08;;
66575;SDS011;53428;47.686;16.584;2023-04-24T23:35:52;3.20;;;1.15;;
66575;SDS011;53428;47.686;16.584;2023-04-24T23:40:52;3.55;;;1.30;;
66575;SDS011;53428;47.686;16.584;2023-04-24T23:45:51;2.05;;;1.30;;
66575;SDS011;53428;47.686;16.584;2023-04-24T23:50:51;1.40;;;1.27;;
66575;SDS011;53428;47.686;16.584;2023-04-24T23:55:50;1.35;;;1.25;;
